Time;durP1;ratioP1;P1;durP2;ratioP2;P2;SDS_P1;SDS_P2;PMS_P1;PMS_P2;Temp;Humidity;BMP_temperature;BMP_pressure;BME280_temperature;BME280_humidity;BME280_pressure;Samples;Min_cycle;Max_cycle;Signal;HPM_P1;HPM_P2
2023/12/12 00:00:29;;;;;;;16.42;3.03;;;9.60;81.60;;;;;;2532694;28;20077;-76
2023/12/12 00:01:43;;;;;;;10.65;3.05;;;9.60;81.60;;;;;;2528474;28;20137;-77
2023/12/12 00:02:58;;;;;;;12.35;3.00;;;9.60;81.60;;;;;;2523020;28;20049;-77
2023/12/12 00:04:13;;;;;;;13.52;3.83;;;9.60;81.60;;;;;;2522470;28;20049;-78
2023/12/12 00:05:27;;;;;;;9.77;2.50;;;9.70;81.70;;;;;;2526705;28;20061;-77
2023/12/12 00:06:41;;;;;;;14.30;3.88;;;9.70;81.80;;;;;;2527010;28;20050;-77
2023/12/12 00:07:56;;;;;;;16.13;3.33;;;9.70;81.80;;;;;;2526303;28;20042;-77
2023/12/12 00:09:10;;;;;;;14.70;4.32;;;9.70;81.70;;;;;;2524488;28;20042;-77
2023/12/12 00:10:24;;;;;;;5.57;3.22;;;9.70;81.70;;;;;;2522596;28;20050;-77
2023/12/12 00:11:38;;;;;;;17.27;6.40;;;9.80;81.70;;;;;;2519058;28;20495;-77
2023/12/12 00:12:53;;;;;;;10.20;3.42;;;9.80;81.60;;;;;;2512857;28;20046;-78
2023/12/12 00:14:07;;;;;;;10.20;3.50;;;9.80;81.60;;;;;;2512606;28;20399;-77
2023/12/12 00:15:21;;;;;;;5.15;3.10;;;9.90;81.60;;;;;;2520855;28;20038;-77
2023/12/12 00:16:35;;;;;;;11.15;3.25;;;9.90;81.50;;;;;;2522562;28;20069;-77
2023/12/12 00:17:49;;;;;;;9.50;3.97;;;9.90;81.40;;;;;;2522380;28;20080;-78
2023/12/12 00:19:03;;;;;;;9.35;2.70;;;9.90;81.20;;;;;;2522238;28;20053;-78
2023/12/12 00:20:19;;;;;;;13.80;3.78;;;9.90;81.20;;;;;;2522744;28;20038;-78
2023/12/12 00:21:33;;;;;;;11.60;3.15;;;9.90;81.10;;;;;;2522945;28;20057;-78
2023/12/12 00:22:47;;;;;;;9.95;3.28;;;9.90;81.10;;;;;;2522669;28;20513;-78
2023/12/12 00:24:02;;;;;;;5.18;2.58;;;9.90;81.10;;;;;;2522302;28;20522;-77
2023/12/12 00:25:17;;;;;;;5.95;2.47;;;9.90;81.10;;;;;;2522694;28;20045;-79
2023/12/12 00:26:30;;;;;;;8.18;3.88;;;9.90;81.10;;;;;;2523164;28;20071;-78
2023/12/12 00:27:45;;;;;;;7.78;3.17;;;9.90;81.00;;;;;;2522567;28;20041;-78
2023/12/12 00:28:58;;;;;;;12.85;3.60;;;9.80;81.00;;;;;;2523182;28;20046;-79
2023/12/12 00:30:14;;;;;;;11.15;4.35;;;9.80;81.00;;;;;;2515382;28;20384;-78
2023/12/12 00:31:28;;;;;;;14.73;4.50;;;9.80;81.00;;;;;;2522392;28;20042;-78
2023/12/12 00:32:42;;;;;;;6.72;3.85;;;9.70;81.00;;;;;;2522836;28;20046;-78
2023/12/12 00:33:56;;;;;;;8.85;3.75;;;9.70;81.00;;;;;;2523035;28;20046;-78
2023/12/12 00:35:11;;;;;;;12.40;4.35;;;9.70;81.10;;;;;;2522661;28;20041;-78
2023/12/12 00:36:26;;;;;;;5.22;3.65;;;9.70;81.00;;;;;;2521838;28;20061;-78
2023/12/12 00:37:40;;;;;;;13.93;3.67;;;9.70;81.10;;;;;;2522786;28;20054;-78
2023/12/12 00:38:54;;;;;;;7.93;3.05;;;9.70;81.20;;;;;;2523127;28;20049;-78
2023/12/12 00:40:11;;;;;;;16.00;3.08;;;9.60;81.30;;;;;;2522683;28;20410;-78
2023/12/12 00:41:31;;;;;;;9.93;3.90;;;9.60;81.50;;;;;;2514947;28;20443;-78
2023/12/12 00:42:46;;;;;;;10.05;3.28;;;9.70;81.70;;;;;;2522813;28;20041;-78
2023/12/12 00:44:00;;;;;;;9.80;3.63;;;9.70;81.70;;;;;;2522316;28;20052;-78
2023/12/12 00:45:14;;;;;;;15.68;8.25;;;9.70;81.60;;;;;;2522822;28;20465;-78
2023/12/12 00:46:28;;;;;;;15.02;4.72;;;9.70;81.50;;;;;;2522734;28;20518;-78
2023/12/12 00:47:43;;;;;;;8.05;3.85;;;9.70;81.40;;;;;;2522425;28;20034;-78
2023/12/12 00:48:57;;;;;;;15.13;4.75;;;9.70;81.50;;;;;;2522932;28;20050;-78
2023/12/12 00:50:11;;;;;;;8.50;3.17;;;9.60;81.50;;;;;;2522863;28;20041;-78
2023/12/12 00:51:26;;;;;;;12.15;3.33;;;9.60;81.60;;;;;;2522412;28;20041;-78
2023/12/12 00:52:41;;;;;;;6.30;4.18;;;9.60;81.80;;;;;;2523041;28;20479;-78
2023/12/12 00:53:55;;;;;;;9.40;3.13;;;9.60;82.00;;;;;;2522916;28;20054;-78
2023/12/12 00:55:10;;;;;;;15.40;3.35;;;9.60;82.10;;;;;;2522641;28;20042;-78
2023/12/12 00:56:24;;;;;;;7.57;2.50;;;9.60;82.10;;;;;;2512964;28;20518;-78
2023/12/12 00:57:38;;;;;;;10.23;3.13;;;9.60;82.00;;;;;;2515759;28;20045;-78
2023/12/12 00:58:52;;;;;;;13.60;4.47;;;9.60;81.80;;;;;;2522733;28;20042;-77
2023/12/12 01:00:08;;;;;;;7.35;3.25;;;9.60;81.70;;;;;;2522580;28;20045;-78
2023/12/12 01:01:22;;;;;;;10.20;4.25;;;9.60;81.70;;;;;;2522767;28;20046;-78
2023/12/12 01:02:36;;;;;;;23.38;5.03;;;9.50;81.70;;;;;;2522687;28;20518;-77
2023/12/12 01:03:50;;;;;;;6.03;3.03;;;9.50;81.70;;;;;;2522080;28;20045;-79
2023/12/12 01:05:06;;;;;;;18.67;4.72;;;9.50;81.80;;;;;;2522831;28;20042;-77
2023/12/12 01:06:23;;;;;;;9.90;3.78;;;9.40;81.80;;;;;;2522807;28;20095;-78
2023/12/12 01:07:39;;;;;;;10.15;3.45;;;9.40;82.10;;;;;;2522575;28;20422;-77
2023/12/12 01:08:53;;;;;;;11.95;5.90;;;9.40;82.40;;;;;;2522787;28;20053;-78
2023/12/12 01:10:08;;;;;;;9.80;3.67;;;9.30;82.50;;;;;;2523024;28;20543;-78
2023/12/12 01:11:22;;;;;;;11.00;2.83;;;9.40;82.70;;;;;;2522402;28;20041;-78
2023/12/12 01:12:37;;;;;;;12.10;3.53;;;9.40;82.80;;;;;;2522347;28;20072;-77
2023/12/12 01:13:51;;;;;;;12.10;4.45;;;9.30;82.80;;;;;;2522316;28;20056;-78
2023/12/12 01:15:07;;;;;;;11.70;4.88;;;9.30;82.80;;;;;;2522570;28;20148;-78
2023/12/12 01:16:21;;;;;;;7.57;3.25;;;9.30;82.90;;;;;;2522777;28;20041;-77
2023/12/12 01:17:36;;;;;;;10.65;4.43;;;9.30;83.00;;;;;;2523018;28;20450;-78
2023/12/12 01:18:49;;;;;;;22.05;4.68;;;9.30;83.00;;;;;;2522848;28;20046;-77
2023/12/12 01:20:07;;;;;;;7.30;2.72;;;9.20;83.00;;;;;;2515995;28;20038;-77
2023/12/12 01:21:21;;;;;;;8.93;2.95;;;9.20;83.10;;;;;;2521028;28;20042;-77
2023/12/12 01:22:35;;;;;;;7.05;3.40;;;9.20;83.30;;;;;;2520603;28;20451;-77
2023/12/12 01:23:52;;;;;;;14.85;4.15;;;9.20;83.30;;;;;;2516171;28;20038;-78
2023/12/12 01:25:08;;;;;;;11.77;3.25;;;9.20;83.40;;;;;;2516217;28;20123;-77
2023/12/12 01:26:23;;;;;;;12.50;4.22;;;9.20;83.50;;;;;;2521127;28;20045;-78
2023/12/12 01:27:37;;;;;;;8.00;3.00;;;9.10;83.50;;;;;;2514214;28;20038;-78
2023/12/12 01:28:52;;;;;;;13.13;4.63;;;9.10;83.50;;;;;;2514825;28;20057;-77
2023/12/12 01:30:07;;;;;;;19.55;5.00;;;9.10;83.50;;;;;;2514721;28;20049;-78
2023/12/12 01:31:21;;;;;;;10.68;3.17;;;9.10;83.60;;;;;;2521958;28;20436;-78
2023/12/12 01:32:36;;;;;;;8.85;3.17;;;9.10;83.70;;;;;;2521920;28;20046;-78
2023/12/12 01:33:50;;;;;;;12.20;2.90;;;9.00;83.60;;;;;;2518667;28;20613;-77
2023/12/12 01:35:05;;;;;;;6.25;2.80;;;9.00;83.80;;;;;;2524196;28;20137;-78
2023/12/12 01:36:19;;;;;;;9.40;4.90;;;9.00;83.90;;;;;;2524186;28;20461;-78
2023/12/12 01:37:34;;;;;;;19.38;6.10;;;9.00;84.00;;;;;;2516569;28;20050;-77
2023/12/12 01:38:47;;;;;;;15.90;3.78;;;9.00;84.10;;;;;;2524516;28;20479;-78
2023/12/12 01:40:04;;;;;;;23.98;8.73;;;9.00;84.20;;;;;;2523979;28;20037;-77
2023/12/12 01:41:18;;;;;;;13.98;3.50;;;9.00;84.30;;;;;;2524344;28;20117;-77
2023/12/12 01:42:33;;;;;;;9.68;4.18;;;9.10;84.30;;;;;;2524533;28;20042;-77
2023/12/12 01:43:46;;;;;;;8.07;2.50;;;9.10;84.40;;;;;;2523722;28;20042;-77
2023/12/12 01:45:01;;;;;;;9.50;3.78;;;9.10;84.20;;;;;;2524370;28;20038;-77
2023/12/12 01:46:17;;;;;;;13.98;3.03;;;9.10;83.90;;;;;;2524159;28;20463;-78
2023/12/12 01:47:32;;;;;;;5.13;3.00;;;9.10;83.70;;;;;;2515714;28;20085;-77
2023/12/12 01:48:47;;;;;;;10.82;3.53;;;9.00;83.30;;;;;;2523804;28;20046;-76
2023/12/12 01:50:02;;;;;;;9.00;2.80;;;8.90;83.00;;;;;;2524165;28;20088;-77
2023/12/12 01:51:16;;;;;;;9.77;3.47;;;8.80;82.80;;;;;;2516388;28;20078;-78
2023/12/12 01:52:32;;;;;;;13.40;3.35;;;8.80;82.90;;;;;;2522871;28;20042;-78
2023/12/12 01:53:47;;;;;;;5.80;3.20;;;8.70;83.00;;;;;;2518125;28;20061;-78
2023/12/12 01:55:03;;;;;;;5.75;2.75;;;8.70;83.20;;;;;;2524207;28;20125;-78
2023/12/12 01:56:17;;;;;;;8.70;3.83;;;8.60;83.30;;;;;;2524217;28;20049;-77
2023/12/12 01:57:32;;;;;;;8.10;2.38;;;8.50;83.40;;;;;;2524551;28;20041;-78
2023/12/12 01:58:49;;;;;;;10.57;4.40;;;8.50;83.50;;;;;;2524462;28;20046;-78
2023/12/12 02:00:05;;;;;;;7.80;3.50;;;8.40;83.60;;;;;;2523839;28;20069;-78
2023/12/12 02:01:20;;;;;;;10.65;2.95;;;8.40;83.80;;;;;;2524234;28;20042;-78
2023/12/12 02:02:35;;;;;;;20.65;4.13;;;8.40;84.00;;;;;;2516462;28;20129;-78
2023/12/12 02:03:51;;;;;;;13.95;3.28;;;8.30;84.10;;;;;;2530887;28;20045;-79
2023/12/12 02:05:06;;;;;;;3.53;2.50;;;8.30;84.30;;;;;;2534397;28;20046;-77
2023/12/12 02:06:22;;;;;;;26.23;4.18;;;8.30;84.40;;;;;;2534469;28;20498;-78
2023/12/12 02:07:38;;;;;;;11.20;4.30;;;8.20;84.30;;;;;;2533562;28;20041;-78
2023/12/12 02:08:52;;;;;;;8.90;2.88;;;8.20;85.10;;;;;;2533960;28;20048;-78
2023/12/12 02:10:09;;;;;;;7.30;2.58;;;8.20;84.40;;;;;;2528414;28;20042;-77
2023/12/12 02:11:23;;;;;;;18.00;3.03;;;8.20;84.50;;;;;;2523756;28;20046;-78
2023/12/12 02:12:38;;;;;;;17.15;4.47;;;8.20;84.50;;;;;;2526191;28;20042;-78
2023/12/12 02:13:51;;;;;;;12.18;3.75;;;8.10;84.50;;;;;;2530020;28;20057;-77
2023/12/12 02:15:07;;;;;;;13.07;4.78;;;8.10;84.70;;;;;;2523656;28;20046;-78
2023/12/12 02:16:21;;;;;;;12.35;2.65;;;8.10;84.80;;;;;;2531930;28;20041;-77
2023/12/12 02:17:36;;;;;;;5.82;3.03;;;8.00;84.90;;;;;;2524160;28;20053;-77
2023/12/12 02:18:50;;;;;;;10.50;4.38;;;8.00;85.00;;;;;;2524025;28;20053;-77
2023/12/12 02:20:06;;;;;;;9.13;3.22;;;8.00;85.20;;;;;;2528926;28;20557;-77
2023/12/12 02:21:21;;;;;;;12.40;3.90;;;8.00;85.30;;;;;;2533797;28;20046;-78
2023/12/12 02:22:35;;;;;;;6.55;3.30;;;8.00;85.50;;;;;;2525952;28;20058;-78
2023/12/12 02:23:49;;;;;;;10.52;2.88;;;7.90;85.50;;;;;;2533942;28;20045;-78
2023/12/12 02:25:05;;;;;;;6.95;4.40;;;7.90;85.50;;;;;;2534148;28;20049;-78
2023/12/12 02:26:19;;;;;;;9.73;2.90;;;7.90;86.40;;;;;;2533815;28;20046;-78
2023/12/12 02:27:34;;;;;;;11.27;4.78;;;7.90;85.70;;;;;;2532028;28;20052;-78
2023/12/12 02:28:48;;;;;;;15.25;2.90;;;7.90;85.70;;;;;;2527624;28;20056;-78
2023/12/12 02:32:22;;;;;;;6.72;2.78;;;7.90;85.80;;;;;;2530550;28;20072;-78
2023/12/12 02:33:35;;;;;;;9.32;2.85;;;7.80;85.90;;;;;;2531397;28;20049;-78
2023/12/12 02:34:50;;;;;;;9.35;3.50;;;7.70;85.80;;;;;;2527786;28;20049;-79
2023/12/12 02:36:05;;;;;;;18.67;4.25;;;7.80;85.90;;;;;;2533461;28;20049;-78
2023/12/12 02:37:21;;;;;;;8.27;2.25;;;7.70;85.80;;;;;;2533990;28;20467;-78
2023/12/12 02:38:34;;;;;;;9.13;4.75;;;7.70;85.90;;;;;;2534015;28;20460;-77
2023/12/12 02:39:49;;;;;;;10.57;2.65;;;7.70;85.90;;;;;;2533810;28;20120;-78
2023/12/12 02:41:03;;;;;;;14.23;3.53;;;7.70;85.90;;;;;;2533964;28;20124;-78
2023/12/12 02:42:18;;;;;;;6.50;3.67;;;7.60;85.90;;;;;;2534064;28;20041;-78
2023/12/12 02:43:32;;;;;;;18.52;4.10;;;7.60;86.00;;;;;;2533298;28;20694;-78
2023/12/12 02:44:46;;;;;;;9.98;3.88;;;7.60;86.10;;;;;;2533801;28;20052;-79
2023/12/12 02:46:00;;;;;;;7.68;2.38;;;7.60;86.20;;;;;;2533908;28;20041;-78
2023/12/12 02:47:15;;;;;;;7.70;2.50;;;7.60;86.20;;;;;;2531513;28;20470;-78
2023/12/12 02:48:28;;;;;;;12.82;3.25;;;7.60;86.20;;;;;;2524077;28;20050;-78
2023/12/12 02:49:43;;;;;;;8.45;2.63;;;7.60;86.20;;;;;;2523913;28;20045;-77
2023/12/12 02:50:57;;;;;;;8.65;3.08;;;7.60;86.30;;;;;;2523812;28;20045;-78
2023/12/12 02:52:11;;;;;;;10.15;2.83;;;7.60;86.30;;;;;;2523750;28;20046;-78
2023/12/12 02:53:26;;;;;;;13.63;2.88;;;7.50;86.40;;;;;;2524078;28;20053;-78
2023/12/12 02:54:41;;;;;;;12.93;4.45;;;7.50;86.40;;;;;;2524019;28;20415;-78
2023/12/12 02:55:55;;;;;;;9.05;3.13;;;7.50;86.50;;;;;;2523356;28;20129;-78
2023/12/12 02:57:10;;;;;;;12.52;3.20;;;7.50;86.60;;;;;;2523883;28;20046;-78
2023/12/12 02:58:23;;;;;;;10.23;4.82;;;7.50;86.70;;;;;;2523930;28;20065;-78
2023/12/12 02:59:38;;;;;;;13.93;4.68;;;7.50;86.80;;;;;;2523176;28;20046;-78
2023/12/12 03:00:52;;;;;;;14.40;3.78;;;7.50;86.70;;;;;;2523901;28;20061;-78
2023/12/12 03:02:06;;;;;;;7.32;2.47;;;7.50;86.70;;;;;;2523491;28;20042;-78
2023/12/12 03:03:20;;;;;;;14.25;3.75;;;7.50;86.70;;;;;;2523504;28;20042;-78
2023/12/12 03:04:35;;;;;;;14.23;6.32;;;7.50;86.60;;;;;;2515763;28;20051;-78
2023/12/12 03:05:48;;;;;;;9.98;3.10;;;7.50;86.60;;;;;;2523628;28;20455;-78
2023/12/12 03:07:03;;;;;;;8.20;3.38;;;7.50;86.60;;;;;;2523289;28;20046;-77
2023/12/12 03:08:17;;;;;;;10.90;5.05;;;7.40;86.60;;;;;;2523553;28;20057;-78
2023/12/12 03:09:33;;;;;;;12.35;3.05;;;7.40;86.60;;;;;;2523658;28;20038;-78
2023/12/12 03:10:47;;;;;;;12.30;3.05;;;7.40;86.60;;;;;;2523854;28;20053;-78
2023/12/12 03:12:02;;;;;;;11.30;2.92;;;7.40;86.60;;;;;;2522906;28;20037;-78
2023/12/12 03:13:15;;;;;;;5.57;2.80;;;7.40;86.60;;;;;;2523879;28;20050;-78
2023/12/12 03:14:30;;;;;;;14.98;5.35;;;7.30;86.60;;;;;;2523863;28;20042;-78
2023/12/12 03:15:44;;;;;;;12.23;3.50;;;7.30;86.60;;;;;;2523209;28;20367;-78
2023/12/12 03:16:59;;;;;;;7.93;3.88;;;7.30;86.60;;;;;;2519575;28;20042;-78
2023/12/12 03:18:12;;;;;;;6.72;3.40;;;7.30;86.60;;;;;;2519753;28;20503;-78
2023/12/12 03:19:29;;;;;;;11.32;3.33;;;7.20;86.50;;;;;;2514781;28;20093;-78
2023/12/12 03:20:42;;;;;;;12.98;4.53;;;7.20;86.60;;;;;;2523328;28;20050;-78
2023/12/12 03:21:57;;;;;;;11.75;5.57;;;7.20;86.70;;;;;;2523611;28;20118;-77
2023/12/12 03:23:11;;;;;;;8.80;3.63;;;7.20;86.70;;;;;;2517523;28;20068;-78
2023/12/12 03:24:26;;;;;;;10.00;4.75;;;7.10;86.70;;;;;;2514174;28;20526;-78
2023/12/12 03:25:41;;;;;;;9.20;4.15;;;7.10;86.80;;;;;;2515916;28;20053;-78
2023/12/12 03:26:56;;;;;;;10.23;3.38;;;7.10;86.70;;;;;;2523528;28;20553;-78
2023/12/12 03:28:11;;;;;;;12.50;4.80;;;7.00;86.70;;;;;;2524049;28;20046;-77
2023/12/12 03:29:26;;;;;;;7.13;3.08;;;7.00;86.80;;;;;;2522200;28;20073;-77
2023/12/12 03:30:39;;;;;;;8.55;3.67;;;7.00;86.80;;;;;;2520543;28;20062;-77
2023/12/12 03:31:54;;;;;;;7.97;2.63;;;6.90;86.90;;;;;;2520979;28;20422;-77
2023/12/12 03:33:08;;;;;;;9.18;2.83;;;6.90;87.00;;;;;;2521036;28;20049;-77
2023/12/12 03:34:22;;;;;;;10.05;2.72;;;6.80;87.00;;;;;;2518037;28;20042;-77
2023/12/12 03:35:36;;;;;;;12.73;3.85;;;6.80;87.10;;;;;;2523554;28;20041;-77
2023/12/12 03:36:51;;;;;;;10.45;3.28;;;6.80;87.30;;;;;;2522769;28;20049;-77
2023/12/12 03:38:04;;;;;;;7.72;2.50;;;6.80;87.50;;;;;;2517306;28;20050;-77
2023/12/12 03:39:19;;;;;;;10.15;3.17;;;6.70;87.60;;;;;;2519546;28;20044;-77
2023/12/12 03:40:33;;;;;;;11.73;3.28;;;6.70;87.70;;;;;;2522713;28;20086;-77
2023/12/12 03:41:49;;;;;;;19.75;6.50;;;6.70;87.80;;;;;;2522654;28;20046;-77
2023/12/12 03:43:03;;;;;;;8.95;2.70;;;6.70;88.00;;;;;;2522255;28;20038;-77
2023/12/12 03:44:17;;;;;;;15.65;4.10;;;6.70;88.00;;;;;;2522748;28;20475;-77
2023/12/12 03:45:31;;;;;;;8.05;2.80;;;6.70;88.10;;;;;;2522671;28;20057;-77
2023/12/12 03:46:46;;;;;;;10.90;2.60;;;6.70;88.20;;;;;;2522626;28;20108;-77
2023/12/12 03:48:00;;;;;;;8.38;3.42;;;6.70;88.30;;;;;;2522109;28;20041;-77
2023/12/12 03:49:14;;;;;;;13.02;3.45;;;6.80;88.20;;;;;;2522231;28;20196;-77
2023/12/12 03:50:28;;;;;;;12.50;3.00;;;6.80;88.20;;;;;;2522537;28;20046;-77
2023/12/12 03:51:43;;;;;;;5.20;3.00;;;6.80;88.20;;;;;;2522203;28;20052;-77
2023/12/12 03:52:58;;;;;;;10.95;4.32;;;6.70;88.20;;;;;;2522975;28;20046;-77
2023/12/12 03:54:12;;;;;;;10.60;3.70;;;6.80;88.20;;;;;;2516822;28;20057;-77
2023/12/12 03:55:26;;;;;;;6.25;3.15;;;6.80;88.20;;;;;;2513143;28;20053;-78
2023/12/12 03:56:40;;;;;;;15.27;3.40;;;6.80;88.20;;;;;;2520533;28;20054;-78
2023/12/12 03:57:56;;;;;;;11.23;3.05;;;6.80;88.20;;;;;;2516372;28;20053;-77
2023/12/12 03:59:10;;;;;;;9.95;4.05;;;6.80;88.20;;;;;;2522420;28;20046;-77
2023/12/12 04:00:24;;;;;;;7.05;3.22;;;6.80;88.20;;;;;;2522981;28;20045;-78
2023/12/12 04:01:38;;;;;;;5.93;3.03;;;6.80;88.30;;;;;;2522824;28;20053;-77
2023/12/12 04:02:53;;;;;;;8.10;3.20;;;6.80;88.40;;;;;;2522808;28;20423;-77
2023/12/12 04:04:06;;;;;;;12.05;4.13;;;6.80;88.50;;;;;;2522339;28;20045;-77
2023/12/12 04:05:21;;;;;;;10.43;3.38;;;6.90;88.70;;;;;;2522721;28;20072;-78
2023/12/12 04:06:43;;;;;;;9.63;4.50;;;6.90;88.70;;;;;;2521550;28;20419;-78
2023/12/12 04:07:58;;;;;;;8.77;3.80;;;7.00;89.00;;;;;;2516435;28;20049;-77
2023/12/12 04:09:12;;;;;;;8.27;2.55;;;7.00;89.00;;;;;;2516793;28;20050;-77
2023/12/12 04:10:26;;;;;;;14.18;4.05;;;7.00;89.00;;;;;;2520522;28;20041;-77
2023/12/12 04:11:40;;;;;;;13.35;5.13;;;7.10;89.00;;;;;;2522114;28;20645;-78
2023/12/12 04:12:57;;;;;;;12.32;3.42;;;7.10;89.00;;;;;;2522944;28;20045;-77
2023/12/12 04:14:11;;;;;;;6.70;3.55;;;7.20;88.90;;;;;;2522810;28;20103;-77
2023/12/12 04:15:25;;;;;;;10.65;3.63;;;7.20;88.80;;;;;;2522288;28;20046;-77
2023/12/12 04:16:39;;;;;;;11.57;3.72;;;7.30;88.80;;;;;;2522560;28;20049;-77
2023/12/12 04:17:54;;;;;;;12.38;3.33;;;7.30;88.70;;;;;;2522586;28;20042;-78
2023/12/12 04:19:07;;;;;;;13.00;5.88;;;7.40;88.70;;;;;;2522259;28;20045;-77
2023/12/12 04:20:22;;;;;;;16.08;4.38;;;7.40;88.50;;;;;;2522350;28;20048;-77
2023/12/12 04:21:36;;;;;;;5.15;2.58;;;7.50;88.40;;;;;;2522727;28;20053;-78
2023/12/12 04:22:51;;;;;;;17.90;4.68;;;7.50;88.20;;;;;;2522957;28;20479;-77
2023/12/12 04:24:05;;;;;;;31.35;5.65;;;7.50;88.20;;;;;;2522056;28;20089;-77
2023/12/12 04:25:20;;;;;;;7.55;2.75;;;7.60;88.20;;;;;;2522460;28;20044;-77
2023/12/12 04:26:34;;;;;;;7.38;2.70;;;7.60;88.20;;;;;;2521666;28;20107;-77
2023/12/12 04:27:48;;;;;;;7.97;3.30;;;7.60;88.00;;;;;;2514479;28;20038;-77
2023/12/12 04:29:04;;;;;;;15.77;4.30;;;7.70;88.00;;;;;;2522479;28;20050;-77
2023/12/12 04:30:19;;;;;;;4.63;2.80;;;7.70;87.90;;;;;;2522885;28;20046;-77
2023/12/12 04:31:32;;;;;;;6.90;2.63;;;7.80;87.90;;;;;;2513190;28;20551;-77
2023/12/12 04:32:47;;;;;;;17.23;5.10;;;7.80;87.80;;;;;;2512854;28;20054;-77
2023/12/12 04:34:01;;;;;;;6.13;2.53;;;7.80;87.60;;;;;;2512441;28;20046;-77
2023/12/12 04:35:16;;;;;;;8.45;2.97;;;7.80;87.50;;;;;;2512290;28;20515;-77
2023/12/12 04:36:31;;;;;;;8.65;2.92;;;7.90;87.50;;;;;;2520154;28;20125;-77
2023/12/12 04:37:44;;;;;;;11.85;4.45;;;7.90;87.40;;;;;;2514469;28;20138;-77
2023/12/12 04:38:59;;;;;;;8.25;2.90;;;7.90;87.30;;;;;;2521904;28;20141;-77
2023/12/12 04:40:13;;;;;;;12.40;3.60;;;8.00;87.20;;;;;;2522322;28;20057;-77
2023/12/12 04:41:27;;;;;;;5.45;2.65;;;8.00;87.10;;;;;;2514677;28;20427;-77
2023/12/12 04:42:42;;;;;;;12.23;2.97;;;8.00;87.10;;;;;;2520559;28;20273;-77
2023/12/12 04:43:56;;;;;;;11.10;3.17;;;8.00;87.10;;;;;;2515374;28;20037;-77
2023/12/12 04:45:11;;;;;;;10.02;4.13;;;8.10;87.00;;;;;;2517006;28;20046;-77
2023/12/12 04:46:27;;;;;;;10.05;3.90;;;8.10;87.00;;;;;;2520103;28;20061;-77
2023/12/12 04:47:40;;;;;;;6.57;2.72;;;8.10;87.20;;;;;;2513681;28;20080;-77
2023/12/12 04:48:55;;;;;;;8.93;4.15;;;8.20;87.30;;;;;;2522507;28;20481;-77
2023/12/12 04:50:09;;;;;;;5.82;1.98;;;8.20;87.20;;;;;;2522601;28;20046;-77
2023/12/12 04:51:23;;;;;;;7.72;4.80;;;8.20;87.10;;;;;;2514689;28;20045;-77
2023/12/12 04:52:37;;;;;;;7.18;2.88;;;8.30;87.10;;;;;;2521251;28;20041;-77
2023/12/12 04:53:52;;;;;;;7.40;2.72;;;8.30;87.00;;;;;;2522184;28;20054;-77
2023/12/12 04:55:06;;;;;;;9.35;3.63;;;8.30;86.90;;;;;;2521808;28;20050;-77
2023/12/12 04:56:21;;;;;;;8.77;3.65;;;8.30;86.80;;;;;;2522172;28;20068;-77
2023/12/12 04:57:35;;;;;;;8.18;3.15;;;8.40;86.70;;;;;;2514308;28;20058;-77
2023/12/12 04:58:49;;;;;;;12.57;8.05;;;8.40;86.60;;;;;;2522596;28;20049;-78
2023/12/12 05:00:12;;;;;;;4.78;2.55;;;8.40;86.50;;;;;;2521961;28;20046;-77
2023/12/12 05:01:28;;;;;;;;;;;8.40;86.40;;;;;;2517514;28;20073;-77
2023/12/12 05:02:42;;;;;;;7.78;2.80;;;8.40;86.20;;;;;;2522494;28;20301;-78
2023/12/12 05:03:57;;;;;;;6.88;2.50;;;8.30;86.50;;;;;;2517548;28;20038;-77
2023/12/12 05:05:10;;;;;;;9.73;3.00;;;8.40;86.50;;;;;;2524601;28;20053;-77
2023/12/12 05:06:25;;;;;;;9.05;3.38;;;8.40;86.40;;;;;;2517249;28;20070;-77
2023/12/12 05:07:39;;;;;;;8.45;3.85;;;8.40;86.40;;;;;;2521918;28;20057;-77
2023/12/12 05:08:53;;;;;;;9.25;3.38;;;8.40;86.30;;;;;;2517426;28;20046;-76
2023/12/12 05:10:08;;;;;;;6.68;2.92;;;8.50;86.30;;;;;;2524166;28;20046;-77
2023/12/12 05:11:22;;;;;;;7.22;3.75;;;8.50;86.30;;;;;;2523851;28;20048;-78
2023/12/12 05:12:36;;;;;;;11.13;3.00;;;8.50;86.20;;;;;;2523951;28;20050;-77
2023/12/12 05:13:51;;;;;;;6.95;3.55;;;8.50;86.10;;;;;;2523906;28;20494;-78
2023/12/12 05:15:05;;;;;;;6.30;3.67;;;8.60;86.00;;;;;;2523792;28;20049;-77
2023/12/12 05:16:20;;;;;;;12.07;3.45;;;8.60;85.90;;;;;;2524263;28;20042;-77
2023/12/12 05:17:35;;;;;;;5.95;2.78;;;8.60;85.70;;;;;;2524161;28;20050;-77
2023/12/12 05:18:50;;;;;;;6.00;3.20;;;8.50;85.60;;;;;;2516773;28;20058;-77
2023/12/12 05:20:05;;;;;;;6.97;2.70;;;8.50;85.70;;;;;;2523697;28;20410;-77
2023/12/12 05:21:21;;;;;;;6.78;3.25;;;8.50;85.90;;;;;;2524051;28;20410;-78
2023/12/12 05:22:35;;;;;;;9.40;3.78;;;8.50;85.90;;;;;;2524451;28;20069;-78
2023/12/12 05:23:49;;;;;;;8.65;2.80;;;8.60;86.00;;;;;;2523778;28;20038;-77
2023/12/12 05:25:05;;;;;;;10.57;2.80;;;8.60;86.00;;;;;;2520028;28;20046;-77
2023/12/12 05:26:18;;;;;;;6.60;3.70;;;8.60;86.00;;;;;;2520046;28;20077;-77
2023/12/12 05:27:33;;;;;;;8.75;3.70;;;8.60;85.90;;;;;;2523620;28;20045;-77
2023/12/12 05:28:47;;;;;;;5.85;2.92;;;8.60;85.80;;;;;;2524376;28;20050;-77
2023/12/12 05:30:01;;;;;;;10.43;2.92;;;8.60;85.80;;;;;;2524009;28;20046;-77
2023/12/12 05:31:15;;;;;;;14.10;3.20;;;8.60;85.70;;;;;;2523743;28;20069;-77
2023/12/12 05:32:30;;;;;;;8.07;4.65;;;8.60;85.70;;;;;;2524450;28;20046;-77
2023/12/12 05:33:46;;;;;;;8.68;2.83;;;8.60;85.80;;;;;;2524466;28;20049;-77
2023/12/12 05:35:01;;;;;;;13.13;2.95;;;8.60;85.80;;;;;;2523856;28;20050;-77
2023/12/12 05:36:15;;;;;;;5.78;3.13;;;8.60;85.80;;;;;;2540419;23;21484;-80
2023/12/12 05:37:29;;;;;;;8.85;2.95;;;8.60;85.80;;;;;;2531511;28;20060;-79
2023/12/12 05:38:43;;;;;;;16.23;3.10;;;8.60;85.80;;;;;;2535370;28;20056;-79
2023/12/12 05:39:58;;;;;;;11.95;3.70;;;8.70;86.00;;;;;;2530291;28;20041;-81
2023/12/12 05:41:11;;;;;;;5.82;3.28;;;8.70;86.00;;;;;;2536303;28;20045;-80
2023/12/12 05:42:26;;;;;;;13.93;3.75;;;8.70;86.00;;;;;;2536405;28;20502;-81
2023/12/12 05:43:40;;;;;;;10.20;3.85;;;8.80;86.00;;;;;;2535044;28;20046;-81
2023/12/12 05:44:55;;;;;;;12.07;3.03;;;8.80;85.90;;;;;;2537381;28;20049;-81
2023/12/12 05:46:10;;;;;;;9.93;3.65;;;8.80;85.80;;;;;;2536217;28;20099;-81
2023/12/12 05:47:25;;;;;;;6.07;3.00;;;8.80;85.80;;;;;;2534731;28;20038;-80
2023/12/12 05:48:39;;;;;;;19.48;4.22;;;8.90;85.80;;;;;;2535709;28;20057;-80
2023/12/12 05:49:55;;;;;;;14.27;4.30;;;8.90;85.80;;;;;;2535353;28;20041;-81
2023/12/12 05:51:09;;;;;;;7.95;3.33;;;8.90;85.70;;;;;;2535734;28;20335;-80
2023/12/12 05:52:25;;;;;;;5.85;3.78;;;9.00;85.70;;;;;;2535376;28;20041;-80
2023/12/12 05:53:39;;;;;;;10.68;3.10;;;9.00;85.60;;;;;;2536269;28;20414;-80
2023/12/12 05:54:53;;;;;;;10.00;3.40;;;9.00;85.60;;;;;;2535335;28;20059;-79
2023/12/12 05:56:08;;;;;;;8.32;4.05;;;9.00;85.50;;;;;;2535542;28;20056;-81
2023/12/12 05:57:23;;;;;;;11.50;5.32;;;9.10;85.50;;;;;;2535400;28;20049;-81
2023/12/12 05:58:36;;;;;;;6.70;3.33;;;9.00;85.40;;;;;;2536250;28;20060;-80
2023/12/12 05:59:51;;;;;;;9.23;3.30;;;9.10;85.30;;;;;;2526792;28;20050;-81
2023/12/12 06:01:05;;;;;;;11.75;3.42;;;9.10;85.30;;;;;;2535596;28;20046;-81
2023/12/12 06:02:20;;;;;;;7.22;3.15;;;9.10;85.30;;;;;;2535141;28;20103;-80
2023/12/12 06:03:34;;;;;;;12.30;5.00;;;9.10;85.30;;;;;;2527695;28;20482;-80
2023/12/12 06:04:48;;;;;;;8.65;3.85;;;9.10;85.20;;;;;;2526466;28;20462;-80
2023/12/12 06:06:07;;;;;;;6.80;2.90;;;9.10;85.20;;;;;;2536471;28;20053;-80
2023/12/12 06:07:22;;;;;;;6.05;3.15;;;9.10;85.20;;;;;;2534609;28;20045;-80
2023/12/12 06:08:36;;;;;;;6.57;3.33;;;9.10;85.20;;;;;;2535874;28;20057;-80
2023/12/12 06:09:50;;;;;;;7.47;3.33;;;9.00;85.90;;;;;;2535529;28;20041;-80
2023/12/12 06:11:06;;;;;;;9.20;3.00;;;9.00;85.20;;;;;;2535603;28;20052;-81
2023/12/12 06:12:20;;;;;;;9.73;3.50;;;9.00;85.20;;;;;;2535116;28;20056;-80
2023/12/12 06:13:35;;;;;;;6.90;3.28;;;9.00;85.30;;;;;;2536188;28;20073;-81
2023/12/12 06:14:50;;;;;;;5.03;3.00;;;9.00;85.30;;;;;;2527724;28;20042;-82
2023/12/12 06:16:04;;;;;;;7.40;3.15;;;9.00;85.30;;;;;;2535303;28;20052;-80
2023/12/12 06:17:19;;;;;;;15.75;3.92;;;9.10;85.40;;;;;;2536970;28;20517;-80
2023/12/12 06:18:33;;;;;;;6.25;3.42;;;9.10;85.40;;;;;;2536671;28;20466;-81
2023/12/12 06:19:47;;;;;;;7.47;3.72;;;9.10;85.30;;;;;;2536724;28;20045;-81
2023/12/12 06:21:02;;;;;;;9.88;4.20;;;9.10;85.30;;;;;;2535702;28;20041;-81
2023/12/12 06:22:18;;;;;;;18.80;4.60;;;9.20;85.30;;;;;;2536044;28;20045;-80
2023/12/12 06:23:32;;;;;;;9.60;3.90;;;9.20;85.10;;;;;;2534692;28;20037;-80
2023/12/12 06:24:46;;;;;;;6.25;3.83;;;9.10;84.80;;;;;;2535558;28;20080;-81
2023/12/12 06:26:00;;;;;;;9.05;4.40;;;9.10;84.80;;;;;;2534683;28;20410;-79
2023/12/12 06:27:15;;;;;;;6.55;3.28;;;9.10;85.00;;;;;;2535314;28;20049;-80
2023/12/12 06:28:29;;;;;;;7.22;3.13;;;9.10;85.00;;;;;;2535549;28;20053;-81
2023/12/12 06:29:43;;;;;;;4.60;3.20;;;9.10;85.00;;;;;;2535890;28;20065;-81
2023/12/12 06:30:57;;;;;;;6.15;3.38;;;9.10;85.10;;;;;;2535143;28;20045;-79
2023/12/12 06:32:12;;;;;;;7.03;2.70;;;9.10;85.20;;;;;;2534782;28;20042;-80
2023/12/12 06:33:28;;;;;;;9.63;4.18;;;9.10;85.30;;;;;;2535220;28;20056;-81